LFMN 181630Z 13007KT 9999 FEW024 FEW026TCU SCT056 25/19 Q1010 TEMPO VRB15G30KT 3000 TSRA SCT020CB

ElémentsDécodage
LFMN Station météo située sur l'aérodrome de NICE Côte-d'Azur
181630Z émis le 18 du mois à 16h30 UTC
13007KT vent du 130°, 07 noeuds
9999 visibilité horizontale supérieure à 10 Km
FEW024 nuages rares (1/8 à 2/8) à 2400 pieds
FEW026TCU nuages rares (1/8 à 2/8) à 2600 pieds
 présence de cumulus congestus
SCT056 nuages épars (3/8 à 4/8) à 5600 pieds
25/19 température 25°C, point de rosée 19°C
 soit une humidité relative de 69%
Q1010 la pression au niveau de la mer (QNH) est de 1010 hPa
TEMPO fluctuation temporaire prévue
VRB15G30KT vent de direction variable, moyenne: 15 noeuds, avec rafales à 30 noeuds
3000 visibilité horizontale de 3000 mètres
TSRA pluie d'orage
SCT020CB nuages épars (3/8 à 4/8) à 2000 pieds
 présence de cumulonimbus